Time;durP1;ratioP1;P1;durP2;ratioP2;P2;SDS_P1;SDS_P2;PMS_P1;PMS_P2;Temp;Humidity;BMP_temperature;BMP_pressure;BME280_temperature;BME280_humidity;BME280_pressure;Samples;Min_cycle;Max_cycle;Signal;HPM_P1;HPM_P2
2023/10/07 00:01:22;;;;;;;5.37;2.00;;;13.10;61.50;;;;;;2369353;53;20922;-69
2023/10/07 00:03:53;;;;;;;5.12;2.15;;;13.10;61.50;;;;;;2620847;52;21014;-69
2023/10/07 00:06:25;;;;;;;5.87;2.37;;;13.10;61.60;;;;;;2367674;53;21735;-70
2023/10/07 00:08:51;;;;;;;;;;;13.10;61.60;;;;;;2371620;53;20946;-69
2023/10/07 00:11:18;;;;;;;5.50;1.98;;;13.10;61.00;;;;;;2611893;52;20073;-67
2023/10/07 00:13:47;;;;;;;6.95;2.78;;;13.00;61.50;;;;;;2354074;53;20990;-69
2023/10/07 00:16:18;;;;;;;6.37;2.20;;;13.00;61.60;;;;;;2368486;53;20934;-69
2023/10/07 00:18:45;;;;;;;5.28;1.70;;;13.00;61.70;;;;;;2620545;52;21431;-69
2023/10/07 00:21:25;;;;;;;5.87;2.58;;;13.00;61.70;;;;;;2367894;53;21010;-67
2023/10/07 00:23:53;;;;;;;5.47;2.15;;;13.00;61.70;;;;;;2621084;52;21074;-69
2023/10/07 00:26:19;;;;;;;4.15;1.83;;;12.90;61.70;;;;;;2620594;52;21767;-69
2023/10/07 00:29:00;;;;;;;5.40;2.30;;;12.90;61.70;;;;;;2613301;52;21002;-69
2023/10/07 00:31:27;;;;;;;5.65;2.42;;;12.90;61.80;;;;;;2620924;52;21050;-69
2023/10/07 00:34:03;;;;;;;6.72;2.55;;;12.90;62.00;;;;;;2619451;52;21678;-68
2023/10/07 00:36:42;;;;;;;7.95;3.25;;;12.90;62.20;;;;;;2370042;53;21985;-69
2023/10/07 00:39:09;;;;;;;8.65;3.05;;;12.90;62.40;;;;;;2620349;52;21100;-68
2023/10/07 00:41:46;;;;;;;5.12;2.22;;;12.90;63.10;;;;;;2607723;52;20943;-68
2023/10/07 00:44:29;;;;;;;6.55;2.78;;;12.90;63.10;;;;;;2607210;52;20970;-68
2023/10/07 00:47:12;;;;;;;6.05;2.25;;;12.90;62.30;;;;;;2367485;53;20986;-69
2023/10/07 00:49:54;;;;;;;4.60;1.85;;;12.90;62.20;;;;;;2347708;54;20923;-66
2023/10/07 00:52:28;;;;;;;;;;;12.90;62.10;;;;;;2624173;52;21553;-69
2023/10/07 00:58:27;;;;;;;5.07;2.12;;;12.80;62.00;;;;;;2609079;52;21005;-69
2023/10/07 01:00:56;;;;;;;5.13;2.17;;;12.80;62.10;;;;;;2589084;52;21001;-69
2023/10/07 01:03:47;;;;;;;5.85;2.40;;;12.80;62.50;;;;;;2350962;53;21435;-69
2023/10/07 02:06:51;;;;;;;2.35;0.98;;;12.80;62.20;;;;;;2333075;53;22243;-69
2023/10/07 02:09:24;;;;;;;4.72;1.95;;;12.20;62.40;;;;;;2354752;54;20970;-69
2023/10/07 02:11:57;;;;;;;4.68;2.00;;;12.10;62.60;;;;;;2363736;54;20942;-69
2023/10/07 02:14:25;;;;;;;4.97;2.03;;;12.10;62.70;;;;;;2613574;52;21032;-70
2023/10/07 02:16:52;;;;;;;3.70;1.70;;;12.10;62.80;;;;;;2362791;54;21661;-69
2023/10/07 02:19:27;;;;;;;4.50;1.85;;;12.00;62.70;;;;;;2363964;54;21710;-69
2023/10/07 02:21:59;;;;;;;5.90;2.15;;;12.00;62.70;;;;;;2597276;52;20968;-70
2023/10/07 02:24:31;;;;;;;6.85;2.17;;;12.00;62.80;;;;;;2342423;53;20989;-69
2023/10/07 02:27:06;;;;;;;7.30;2.12;;;12.00;62.80;;;;;;2585715;52;20905;-70
2023/10/07 02:29:34;;;;;;;5.00;2.10;;;12.00;62.80;;;;;;2341466;53;21477;-70
2023/10/07 02:32:35;;;;;;;5.80;2.47;;;12.00;62.80;;;;;;2588536;52;21429;-69
2023/10/07 02:35:01;;;;;;;4.87;2.20;;;12.00;63.00;;;;;;2350500;53;20924;-69
2023/10/07 02:37:38;;;;;;;5.00;1.95;;;12.00;63.00;;;;;;2587562;52;21754;-70
2023/10/07 02:40:19;;;;;;;4.97;2.08;;;11.90;63.10;;;;;;2340911;53;21016;-69
2023/10/07 02:42:50;;;;;;;3.58;1.85;;;11.90;62.80;;;;;;2348162;53;21070;-69
2023/10/07 02:45:28;;;;;;;6.37;2.30;;;11.90;62.70;;;;;;2352539;53;20948;-69
2023/10/07 02:47:54;;;;;;;5.95;1.92;;;11.90;62.70;;;;;;2343489;53;21226;-69
2023/10/07 02:50:21;;;;;;;4.70;2.15;;;11.90;62.70;;;;;;2586916;52;20946;-69
2023/10/07 02:52:52;;;;;;;4.72;1.85;;;11.90;62.70;;;;;;2586746;52;20942;-69
2023/10/07 02:58:06;;;;;;;4.87;1.92;;;11.80;62.70;;;;;;2610922;52;20987;-70
2023/10/07 03:00:35;;;;;;;4.75;1.70;;;11.80;62.70;;;;;;2351552;53;21434;-69
2023/10/07 03:07:20;;;;;;;4.07;1.50;;;11.80;62.70;;;;;;2620462;52;20915;-70
2023/10/07 03:09:55;;;;;;;4.07;1.67;;;11.80;62.60;;;;;;2621155;52;21760;-69
2023/10/07 03:12:27;;;;;;;4.47;1.83;;;11.80;62.60;;;;;;2621150;52;20938;-70
2023/10/07 03:14:58;;;;;;;5.57;2.30;;;11.70;62.50;;;;;;2372157;53;20947;-70
2023/10/07 03:17:39;;;;;;;5.78;2.20;;;11.70;62.70;;;;;;2368665;53;21631;-69
2023/10/07 03:29:30;;;;;;;3.05;1.12;;;11.70;63.00;;;;;;2601932;52;20914;-70
2023/10/07 03:31:59;;;;;;;3.95;1.58;;;11.70;62.80;;;;;;2363710;53;21008;-69
2023/10/07 03:34:26;;;;;;;4.43;1.70;;;11.70;62.80;;;;;;2341109;53;21028;-69
2023/10/07 03:42:51;;;;;;;4.90;1.87;;;11.60;62.70;;;;;;2588181;52;20936;-70
2023/10/07 03:45:17;;;;;;;5.43;2.22;;;11.60;62.60;;;;;;2587123;52;21083;-69
2023/10/07 03:47:46;;;;;;;5.22;2.28;;;11.60;62.80;;;;;;2592791;52;21586;-69
2023/10/07 03:50:29;;;;;;;4.82;2.10;;;11.50;62.80;;;;;;2558469;53;21626;-70
2023/10/07 03:52:55;;;;;;;4.80;2.05;;;11.50;63.70;;;;;;2349167;53;20924;-70
2023/10/07 03:55:22;;;;;;;4.70;2.00;;;11.50;63.00;;;;;;2367828;53;21490;-67
2023/10/07 03:57:52;;;;;;;4.87;1.90;;;11.50;63.10;;;;;;2368237;53;20975;-69
2023/10/07 04:00:19;;;;;;;5.10;2.30;;;11.50;63.00;;;;;;2368813;53;20986;-69
2023/10/07 04:02:45;;;;;;;5.45;2.03;;;11.50;63.00;;;;;;2621477;52;20918;-70
2023/10/07 04:05:14;;;;;;;4.70;1.92;;;11.50;63.00;;;;;;2618388;52;20949;-69
2023/10/07 04:07:43;;;;;;;4.50;1.92;;;11.40;62.80;;;;;;2363065;53;20946;-70
2023/10/07 04:10:22;;;;;;;6.50;2.37;;;11.40;62.80;;;;;;2619846;52;20966;-68
2023/10/07 04:12:49;;;;;;;4.50;2.10;;;11.40;63.50;;;;;;2621314;52;20930;-69
2023/10/07 04:15:18;;;;;;;4.55;1.90;;;11.40;62.80;;;;;;2367534;53;21025;-70
2023/10/07 04:17:45;;;;;;;4.65;1.80;;;11.40;62.80;;;;;;2621332;52;20930;-69
2023/10/07 04:20:28;;;;;;;5.37;1.77;;;11.40;62.90;;;;;;2367885;53;20929;-69
2023/10/07 04:23:00;;;;;;;4.82;2.10;;;11.40;62.90;;;;;;2366223;53;21004;-69
2023/10/07 04:25:27;;;;;;;4.35;2.00;;;11.40;62.80;;;;;;2368833;53;20970;-69
2023/10/07 04:27:55;;;;;;;4.10;1.98;;;11.30;62.80;;;;;;2368624;53;21013;-70
2023/10/07 04:30:38;;;;;;;5.37;2.08;;;11.30;62.80;;;;;;2367603;53;20942;-69
2023/10/07 04:33:10;;;;;;;5.32;2.00;;;11.30;62.60;;;;;;2621362;52;20982;-70
2023/10/07 04:35:38;;;;;;;4.07;1.50;;;11.30;62.70;;;;;;2368025;53;20952;-69
2023/10/07 04:43:47;;;;;;;3.70;1.65;;;11.20;62.60;;;;;;2370760;53;20919;-69
2023/10/07 04:46:23;;;;;;;4.78;1.98;;;11.20;62.80;;;;;;2368004;53;21944;-69
2023/10/07 04:48:56;;;;;;;3.80;1.80;;;11.20;62.80;;;;;;2368695;53;20918;-69
2023/10/07 04:51:46;;;;;;;5.28;2.17;;;11.20;63.40;;;;;;2368630;53;20945;-69
2023/10/07 04:54:12;;;;;;;4.05;1.70;;;11.10;62.70;;;;;;2620819;52;21029;-70
2023/10/07 04:56:47;;;;;;;4.37;2.00;;;11.10;62.70;;;;;;2621081;52;21011;-69
2023/10/07 04:59:15;;;;;;;5.28;1.80;;;11.10;62.80;;;;;;2367422;53;21248;-69
2023/10/07 05:01:42;;;;;;;5.03;2.20;;;11.10;62.80;;;;;;2621687;52;21764;-69
2023/10/07 05:04:09;;;;;;;5.80;2.50;;;11.00;62.90;;;;;;2619764;52;20930;-69
2023/10/07 05:06:37;;;;;;;4.87;1.98;;;11.00;62.90;;;;;;2369206;53;20954;-67
2023/10/07 05:09:09;;;;;;;6.03;2.10;;;11.00;62.90;;;;;;2369076;53;20974;-69
2023/10/07 05:11:40;;;;;;;5.55;2.30;;;11.00;63.00;;;;;;2364293;54;20985;-69
2023/10/07 05:14:08;;;;;;;4.57;1.80;;;11.00;63.10;;;;;;2369593;53;20919;-69
2023/10/07 05:16:37;;;;;;;3.62;1.73;;;11.00;63.30;;;;;;2368497;53;21015;-69
2023/10/07 05:19:09;;;;;;;5.37;2.37;;;11.00;63.30;;;;;;2619916;52;21133;-68
2023/10/07 05:21:38;;;;;;;5.03;2.03;;;11.00;63.30;;;;;;2368683;53;20938;-69
2023/10/07 05:24:09;;;;;;;6.35;2.72;;;11.00;63.30;;;;;;2620773;52;20923;-68
2023/10/07 05:26:36;;;;;;;5.68;2.12;;;11.00;63.60;;;;;;2620931;52;21013;-69
2023/10/07 05:29:03;;;;;;;4.37;1.75;;;11.00;63.60;;;;;;2351794;53;21041;-68
2023/10/07 05:31:30;;;;;;;5.05;2.00;;;11.00;63.60;;;;;;2586686;52;20929;-69
2023/10/07 05:34:01;;;;;;;4.93;2.30;;;11.00;63.50;;;;;;2587655;52;21638;-69
2023/10/07 05:36:44;;;;;;;6.05;2.30;;;11.00;63.50;;;;;;2586624;52;20937;-69
2023/10/07 05:39:13;;;;;;;5.97;2.55;;;11.00;63.40;;;;;;2586808;52;20966;-69
2023/10/07 05:41:41;;;;;;;5.78;2.28;;;11.00;63.60;;;;;;2587072;52;21047;-69
2023/10/07 05:44:09;;;;;;;5.57;2.05;;;11.00;63.60;;;;;;2340945;53;21054;-68
2023/10/07 05:46:36;;;;;;;7.25;2.30;;;11.10;63.70;;;;;;2339275;53;21722;-69
2023/10/07 05:49:04;;;;;;;5.20;1.98;;;11.00;63.60;;;;;;2600627;52;21483;-69
2023/10/07 05:51:35;;;;;;;5.93;2.45;;;11.10;63.80;;;;;;2339888;53;22062;-69
2023/10/07 05:54:01;;;;;;;5.07;2.22;;;11.10;63.90;;;;;;2341219;53;20921;-69
2023/10/07 05:56:28;;;;;;;7.32;2.42;;;11.10;63.90;;;;;;2587844;52;20953;-68
2023/10/07 05:58:54;;;;;;;4.12;2.12;;;11.10;64.00;;;;;;2341142;53;20908;-68
2023/10/07 06:01:22;;;;;;;4.45;1.98;;;11.10;64.00;;;;;;2586495;52;21017;-69
2023/10/07 06:03:51;;;;;;;4.80;2.00;;;11.10;64.00;;;;;;2340786;53;20944;-69
2023/10/07 06:06:20;;;;;;;4.75;2.03;;;11.10;63.90;;;;;;2340033;53;20924;-69
2023/10/07 06:08:47;;;;;;;4.45;1.95;;;11.20;64.00;;;;;;2587160;52;21705;-69
2023/10/07 06:11:15;;;;;;;5.57;2.22;;;11.20;63.90;;;;;;2352378;53;20930;-69
2023/10/07 06:13:44;;;;;;;5.97;2.40;;;11.20;63.80;;;;;;2595582;52;20909;-69
2023/10/07 06:16:13;;;;;;;5.20;2.35;;;11.20;63.80;;;;;;2341215;54;21012;-69
2023/10/07 06:18:40;;;;;;;5.65;2.22;;;11.20;63.80;;;;;;2340699;54;20980;-69
2023/10/07 06:23:53;;;;;;;3.78;1.83;;;11.20;63.80;;;;;;2585345;52;20960;-69
2023/10/07 06:26:20;;;;;;;4.65;2.00;;;11.20;63.70;;;;;;2362855;54;21429;-69
2023/10/07 06:28:48;;;;;;;4.80;1.98;;;11.20;63.80;;;;;;2363445;54;20969;-69
2023/10/07 06:31:22;;;;;;;5.35;2.50;;;11.20;64.50;;;;;;2363194;54;21443;-69
2023/10/07 06:33:59;;;;;;;6.57;2.60;;;11.20;63.70;;;;;;2364181;54;21088;-69
2023/10/07 06:36:39;;;;;;;4.32;1.83;;;11.20;63.70;;;;;;2614613;52;21074;-69
2023/10/07 06:39:07;;;;;;;5.40;2.22;;;11.20;63.60;;;;;;2586610;52;21463;-69
2023/10/07 06:41:34;;;;;;;5.25;2.37;;;11.20;63.80;;;;;;2364315;53;21049;-69
2023/10/07 06:44:02;;;;;;;5.85;2.53;;;11.20;63.90;;;;;;2347849;53;20932;-69
2023/10/07 06:46:31;;;;;;;5.40;2.55;;;11.20;64.00;;;;;;2341262;53;21894;-69
2023/10/07 06:48:57;;;;;;;4.80;2.30;;;11.20;64.20;;;;;;2587166;52;20956;-70
2023/10/07 06:51:29;;;;;;;4.87;2.55;;;11.20;64.30;;;;;;2586521;52;20945;-69
2023/10/07 06:53:59;;;;;;;5.45;2.53;;;11.20;64.30;;;;;;2587524;52;20920;-69
2023/10/07 06:56:27;;;;;;;5.45;2.90;;;11.30;64.50;;;;;;2586941;52;20937;-70
2023/10/07 06:58:59;;;;;;;6.12;2.67;;;11.30;64.60;;;;;;2586912;52;20992;-69
2023/10/07 07:01:35;;;;;;;6.93;2.87;;;11.30;64.70;;;;;;2339919;53;20964;-69
2023/10/07 07:04:10;;;;;;;6.22;2.97;;;11.40;65.00;;;;;;2587386;52;21013;-68
2023/10/07 07:06:42;;;;;;;6.25;2.62;;;11.40;65.10;;;;;;2340216;53;20940;-70
2023/10/07 07:12:03;;;;;;;5.15;2.42;;;11.50;65.40;;;;;;2621881;52;20922;-70
2023/10/07 07:14:30;;;;;;;5.53;2.45;;;11.60;65.70;;;;;;2621643;52;20962;-69
2023/10/07 07:17:29;;;;;;;10.27;3.25;;;11.70;65.90;;;;;;2368401;53;21004;-69
2023/10/07 07:26:09;;;;;;;5.35;2.58;;;11.80;66.30;;;;;;2621407;52;20954;-70
2023/10/07 07:28:36;;;;;;;5.97;2.65;;;12.00;66.50;;;;;;2349285;53;20936;-72
2023/10/07 07:31:10;;;;;;;5.80;2.60;;;12.10;66.70;;;;;;2368815;53;20922;-70
2023/10/07 07:33:37;;;;;;;4.70;2.55;;;12.20;66.90;;;;;;2620820;52;21002;-69
2023/10/07 07:36:18;;;;;;;6.18;2.95;;;12.30;67.00;;;;;;2621226;52;20934;-69
2023/10/07 07:38:47;;;;;;;5.90;2.92;;;12.30;67.00;;;;;;2369295;53;20934;-70
2023/10/07 07:43:59;;;;;;;7.03;3.20;;;12.60;67.50;;;;;;2368651;53;20937;-69
2023/10/07 07:46:51;;;;;;;6.82;2.80;;;12.60;67.60;;;;;;2368144;53;21001;-68
2023/10/07 07:49:19;;;;;;;6.85;2.65;;;12.80;67.80;;;;;;2369127;53;20946;-71
2023/10/07 07:51:54;;;;;;;5.68;2.70;;;12.90;67.80;;;;;;2368766;53;20934;-69
2023/10/07 07:54:24;;;;;;;6.97;2.75;;;13.00;68.00;;;;;;2621057;52;20922;-69
2023/10/07 07:56:51;;;;;;;4.87;2.60;;;13.10;68.00;;;;;;2368766;53;20994;-70
2023/10/07 07:59:18;;;;;;;5.10;2.08;;;13.20;68.20;;;;;;2621317;52;20914;-68
2023/10/07 08:01:44;;;;;;;4.90;2.40;;;13.30;68.30;;;;;;2360468;53;21007;-70
2023/10/07 08:04:34;;;;;;;5.40;2.55;;;13.40;68.30;;;;;;2602746;52;21373;-70
2023/10/07 08:07:06;;;;;;;4.37;2.20;;;13.60;68.50;;;;;;2618916;52;21519;-68
2023/10/07 08:09:36;;;;;;;4.87;2.25;;;13.70;68.40;;;;;;2610590;52;21002;-70
2023/10/07 08:12:09;;;;;;;5.97;2.80;;;13.80;68.40;;;;;;2354890;53;20953;-69
2023/10/07 08:14:40;;;;;;;5.35;2.40;;;14.00;68.40;;;;;;2368953;53;20934;-68
2023/10/07 08:17:10;;;;;;;7.28;2.87;;;14.10;68.40;;;;;;2619595;52;20954;-68
2023/10/07 08:19:40;;;;;;;5.00;2.55;;;14.20;68.40;;;;;;2368677;53;21021;-72
2023/10/07 08:22:18;;;;;;;6.93;3.22;;;14.30;68.30;;;;;;2367879;53;20966;-69
2023/10/07 08:24:45;;;;;;;6.50;3.58;;;14.40;68.40;;;;;;2334434;53;20999;-69
2023/10/07 08:30:05;;;;;;;5.70;2.70;;;14.60;68.60;;;;;;2341560;54;20917;-71
2023/10/07 08:32:41;;;;;;;4.95;2.45;;;14.70;68.60;;;;;;2362703;53;20978;-71
2023/10/07 08:35:16;;;;;;;6.43;3.25;;;14.90;68.80;;;;;;2614979;52;20925;-68
2023/10/07 08:37:47;;;;;;;5.43;2.72;;;15.00;68.90;;;;;;2592274;52;20941;-73
2023/10/07 08:40:26;;;;;;;5.87;2.60;;;15.10;68.90;;;;;;2586826;52;20990;-69
2023/10/07 08:43:00;;;;;;;5.87;2.75;;;15.20;68.80;;;;;;2339947;53;21919;-68
2023/10/07 08:45:29;;;;;;;5.43;2.45;;;15.40;69.00;;;;;;2340470;53;20960;-69
2023/10/07 08:48:08;;;;;;;8.18;2.92;;;15.50;69.10;;;;;;2587026;52;20936;-70
2023/10/07 08:50:55;;;;;;;4.55;2.20;;;15.60;69.10;;;;;;2344559;53;21014;-70
2023/10/07 08:53:25;;;;;;;4.80;2.30;;;15.80;69.10;;;;;;2338722;53;20933;-71
2023/10/07 08:55:53;;;;;;;4.65;2.12;;;15.90;69.10;;;;;;2587001;52;20932;-71
2023/10/07 08:58:25;;;;;;;5.50;2.40;;;16.00;69.00;;;;;;2586478;52;20937;-69
2023/10/07 09:00:53;;;;;;;5.05;2.60;;;16.10;68.90;;;;;;2341004;53;21493;-65
2023/10/07 09:03:19;;;;;;;5.00;2.45;;;16.30;69.00;;;;;;2587375;52;21227;-67
2023/10/07 09:05:48;;;;;;;6.62;3.17;;;16.40;69.10;;;;;;2587189;52;21486;-69
2023/10/07 09:08:15;;;;;;;7.03;2.80;;;16.50;69.00;;;;;;2368806;53;20934;-71
2023/10/07 09:10:48;;;;;;;4.97;2.53;;;16.60;68.90;;;;;;2620961;52;21004;-72
2023/10/07 09:13:26;;;;;;;5.37;2.70;;;16.70;68.70;;;;;;2368647;53;21735;-70
2023/10/07 09:15:59;;;;;;;5.20;2.50;;;16.80;68.70;;;;;;2354525;53;21439;-71
2023/10/07 09:18:31;;;;;;;5.22;2.22;;;17.00;68.70;;;;;;2348438;53;21226;-72
2023/10/07 09:20:58;;;;;;;5.00;2.42;;;17.10;68.60;;;;;;2620934;52;20922;-72
2023/10/07 09:23:43;;;;;;;5.30;2.28;;;17.20;68.50;;;;;;2369184;53;20938;-71
2023/10/07 09:26:16;;;;;;;5.03;2.30;;;17.30;68.30;;;;;;2621052;52;20938;-70
2023/10/07 09:28:46;;;;;;;3.87;1.95;;;17.40;68.20;;;;;;2621041;52;20918;-72
2023/10/07 09:31:16;;;;;;;6.07;2.53;;;17.50;68.00;;;;;;2587570;52;20989;-72
2023/10/07 09:33:45;;;;;;;4.35;2.35;;;17.50;68.40;;;;;;2366155;53;21380;-71
2023/10/07 09:43:19;;;;;;;5.30;2.33;;;17.90;67.60;;;;;;2620186;52;21012;-70
2023/10/07 09:45:52;;;;;;;4.95;2.22;;;17.90;67.50;;;;;;2369161;53;20962;-69
2023/10/07 09:48:30;;;;;;;5.40;2.08;;;18.00;67.40;;;;;;2341962;53;21748;-69
2023/10/07 09:51:01;;;;;;;5.55;2.08;;;18.10;67.30;;;;;;2368507;53;21019;-71
2023/10/07 09:54:01;;;;;;;6.18;2.17;;;18.20;67.40;;;;;;2620711;52;21067;-70
2023/10/07 09:59:41;;;;;;;;;;;18.30;66.60;;;;;;2372902;53;21051;-68
2023/10/07 10:03:47;;;;;;;4.87;1.65;;;18.40;66.50;;;;;;2620758;52;20128;-68
2023/10/07 10:06:33;;;;;;;3.65;1.40;;;18.70;66.40;;;;;;2369960;53;20984;-68
2023/10/07 10:09:08;;;;;;;6.10;2.03;;;18.80;67.20;;;;;;2363525;53;21764;-67
2023/10/07 10:14:39;;;;;;;6.05;2.28;;;18.90;67.40;;;;;;2621237;52;21023;-68
2023/10/07 10:17:12;;;;;;;4.80;2.37;;;19.00;66.60;;;;;;2620555;52;21412;-68
2023/10/07 10:19:56;;;;;;;4.57;2.03;;;19.10;67.20;;;;;;2369107;53;21431;-69
2023/10/07 10:22:24;;;;;;;4.60;2.45;;;19.20;67.00;;;;;;2620392;52;21452;-69
2023/10/07 10:25:22;;;;;;;4.68;2.00;;;19.30;67.10;;;;;;2368596;53;20990;-70
2023/10/07 10:27:53;;;;;;;4.62;2.10;;;19.40;66.80;;;;;;2620323;52;20922;-69
2023/10/07 10:30:22;;;;;;;4.30;1.67;;;19.50;66.80;;;;;;2620176;52;20954;-70
2023/10/07 10:32:54;;;;;;;4.53;1.92;;;19.70;66.80;;;;;;2369049;53;21672;-71
2023/10/07 10:35:27;;;;;;;4.78;2.20;;;19.80;66.10;;;;;;2363764;53;20918;-69
2023/10/07 10:37:57;;;;;;;4.43;2.12;;;19.90;65.40;;;;;;2620816;52;20919;-70
2023/10/07 10:40:24;;;;;;;4.40;1.92;;;20.00;65.60;;;;;;2368370;53;20958;-69
2023/10/07 10:42:51;;;;;;;5.07;1.87;;;20.10;65.50;;;;;;2586660;52;20936;-70
2023/10/07 10:45:21;;;;;;;5.18;2.22;;;20.20;65.20;;;;;;2340776;53;20977;-71
2023/10/07 10:47:54;;;;;;;4.87;2.30;;;20.30;64.70;;;;;;2341855;53;20933;-69
2023/10/07 10:50:23;;;;;;;4.80;2.03;;;20.40;64.30;;;;;;2340735;53;20897;-68
2023/10/07 10:52:54;;;;;;;4.85;2.42;;;20.40;64.70;;;;;;2341031;53;21016;-69
2023/10/07 10:55:24;;;;;;;5.05;2.20;;;20.50;64.30;;;;;;2341128;53;21040;-68
2023/10/07 10:57:53;;;;;;;5.30;2.40;;;20.60;64.30;;;;;;2340463;53;20953;-69
2023/10/07 11:00:23;;;;;;;5.15;2.30;;;20.70;64.40;;;;;;2565847;52;22158;-69
2023/10/07 11:02:49;;;;;;;4.53;2.08;;;20.70;64.10;;;;;;2613400;52;21851;-69
2023/10/07 11:05:16;;;;;;;4.97;2.25;;;20.80;64.00;;;;;;2609590;52;21009;-69
2023/10/07 11:07:43;;;;;;;6.07;2.42;;;20.90;63.80;;;;;;2343810;53;21158;-70
2023/10/07 11:10:12;;;;;;;7.32;3.22;;;21.00;63.70;;;;;;2363026;54;21020;-69
2023/10/07 11:12:42;;;;;;;5.37;2.33;;;21.10;63.30;;;;;;2362960;54;20994;-69
2023/10/07 11:15:24;;;;;;;3.90;1.90;;;21.20;63.60;;;;;;2365594;54;21458;-71
2023/10/07 11:18:18;;;;;;;4.85;1.87;;;21.30;63.30;;;;;;2344843;53;20930;-68
2023/10/07 11:20:46;;;;;;;4.18;1.98;;;21.40;62.80;;;;;;2596943;52;20957;-70
2023/10/07 11:23:17;;;;;;;5.05;2.15;;;21.50;63.10;;;;;;2341046;53;20940;-69
2023/10/07 11:25:45;;;;;;;5.18;2.37;;;21.60;62.60;;;;;;2587617;52;20953;-67
2023/10/07 11:28:15;;;;;;;5.37;2.35;;;21.70;63.00;;;;;;2340984;53;20940;-70
2023/10/07 11:30:44;;;;;;;3.95;1.95;;;21.80;62.90;;;;;;2586860;52;20985;-68
2023/10/07 11:33:16;;;;;;;4.45;1.73;;;21.90;62.80;;;;;;2587424;52;20917;-69
2023/10/07 11:35:43;;;;;;;3.47;1.67;;;22.00;62.20;;;;;;2341580;53;20986;-70
2023/10/07 11:38:11;;;;;;;5.43;2.20;;;22.00;62.40;;;;;;2341703;53;20909;-69
2023/10/07 11:40:39;;;;;;;4.68;1.90;;;22.20;62.40;;;;;;2340504;53;20940;-68
2023/10/07 11:43:10;;;;;;;3.67;1.62;;;22.30;62.00;;;;;;2359032;53;20938;-69
2023/10/07 11:45:37;;;;;;;;;;;22.40;61.90;;;;;;2344450;53;21042;-68
2023/10/07 11:48:07;;;;;;;3.95;1.37;;;22.50;60.40;;;;;;2604258;52;20133;-68
2023/10/07 11:50:35;;;;;;;3.28;1.45;;;22.60;62.00;;;;;;2364327;54;21435;-69
2023/10/07 11:53:02;;;;;;;5.95;1.67;;;22.60;61.70;;;;;;2615775;52;20982;-68
2023/10/07 11:55:32;;;;;;;4.80;1.95;;;22.70;61.40;;;;;;2599205;52;20972;-71
2023/10/07 11:57:59;;;;;;;4.47;2.00;;;22.80;61.30;;;;;;2588120;52;20997;-71
2023/10/07 12:00:37;;;;;;;4.45;1.87;;;22.90;61.00;;;;;;2592789;52;20930;-68
2023/10/07 12:03:07;;;;;;;5.10;2.15;;;23.00;60.30;;;;;;2591881;52;20965;-71
2023/10/07 12:05:37;;;;;;;4.60;2.00;;;23.00;60.50;;;;;;2569637;52;20970;-68
2023/10/07 12:08:04;;;;;;;4.15;1.92;;;23.10;60.20;;;;;;2587713;52;20911;-69
2023/10/07 12:10:36;;;;;;;3.92;1.70;;;23.20;60.00;;;;;;2341802;53;20950;-70
2023/10/07 12:13:03;;;;;;;3.60;1.60;;;23.20;59.40;;;;;;2340142;54;21297;-68
2023/10/07 12:15:30;;;;;;;5.20;2.12;;;23.30;59.10;;;;;;2621600;52;20935;-70
2023/10/07 12:17:57;;;;;;;4.37;1.85;;;23.40;58.80;;;;;;2622551;52;20910;-69
2023/10/07 12:20:23;;;;;;;4.12;1.70;;;23.40;58.60;;;;;;2368875;53;22521;-69
2023/10/07 12:22:50;;;;;;;4.15;1.58;;;23.50;58.60;;;;;;2363507;53;21066;-71
2023/10/07 12:25:16;;;;;;;4.03;1.80;;;23.60;58.60;;;;;;2354151;53;21316;-72
2023/10/07 12:27:43;;;;;;;4.35;1.80;;;23.60;58.40;;;;;;2621463;52;20974;-67
2023/10/07 12:30:11;;;;;;;4.37;1.83;;;23.70;58.20;;;;;;2621845;52;21270;-68
2023/10/07 12:32:39;;;;;;;3.90;1.80;;;23.80;57.80;;;;;;2369058;53;20935;-71
2023/10/07 12:35:09;;;;;;;4.25;1.83;;;23.80;57.80;;;;;;2369381;53;20994;-71
2023/10/07 12:37:38;;;;;;;3.97;1.62;;;23.90;57.90;;;;;;2621303;52;21296;-71
2023/10/07 12:40:10;;;;;;;5.72;1.92;;;24.00;57.80;;;;;;2369269;53;20958;-69
2023/10/07 12:42:43;;;;;;;4.18;1.90;;;24.00;57.90;;;;;;2622031;52;21100;-70
2023/10/07 12:45:13;;;;;;;3.70;1.67;;;24.10;57.10;;;;;;2621684;52;21049;-69
2023/10/07 12:47:43;;;;;;;4.70;1.80;;;24.30;57.70;;;;;;2369279;53;21599;-68
2023/10/07 12:52:55;;;;;;;5.12;2.28;;;24.30;57.40;;;;;;2369482;53;22385;-70
2023/10/07 12:55:22;;;;;;;6.82;2.62;;;24.40;57.30;;;;;;2620968;52;20931;-68
2023/10/07 12:57:51;;;;;;;4.57;2.10;;;24.40;57.20;;;;;;2620423;52;20986;-70
2023/10/07 13:00:22;;;;;;;3.97;1.62;;;24.50;57.30;;;;;;2621279;52;20994;-70
2023/10/07 13:02:52;;;;;;;4.28;1.87;;;24.50;57.20;;;;;;2621566;52;20915;-70
2023/10/07 13:05:20;;;;;;;4.03;1.70;;;24.60;56.60;;;;;;2368488;53;21516;-70
2023/10/07 13:07:47;;;;;;;3.70;1.55;;;24.60;56.90;;;;;;2369633;53;20943;-70
2023/10/07 13:10:16;;;;;;;3.72;1.70;;;24.70;56.90;;;;;;2368357;53;20922;-69
2023/10/07 13:12:44;;;;;;;3.80;1.77;;;24.70;57.00;;;;;;2368144;53;20998;-70
2023/10/07 13:15:19;;;;;;;4.03;1.62;;;24.80;56.80;;;;;;2621323;52;21361;-72
2023/10/07 13:17:46;;;;;;;4.12;1.60;;;24.80;57.10;;;;;;2369437;53;20934;-71
2023/10/07 13:20:23;;;;;;;3.97;1.75;;;24.90;56.50;;;;;;2621482;52;20910;-72
2023/10/07 13:22:53;;;;;;;5.22;1.75;;;24.90;55.60;;;;;;2597384;52;21188;-70
2023/10/07 13:25:21;;;;;;;3.92;1.75;;;24.90;55.30;;;;;;2618545;52;21014;-71
2023/10/07 13:27:48;;;;;;;4.07;1.58;;;25.00;55.50;;;;;;2621945;52;20982;-70
2023/10/07 13:30:16;;;;;;;3.37;1.50;;;25.00;55.60;;;;;;2621481;52;21300;-71
2023/10/07 13:32:46;;;;;;;4.20;1.80;;;25.00;55.60;;;;;;2370940;53;20942;-72
2023/10/07 13:35:14;;;;;;;3.75;1.60;;;25.00;55.00;;;;;;2369328;53;20958;-70
2023/10/07 13:37:43;;;;;;;3.37;1.60;;;25.00;55.00;;;;;;2621670;52;20962;-71
2023/10/07 13:40:15;;;;;;;3.30;1.33;;;25.00;55.00;;;;;;2621619;52;20978;-70
2023/10/07 13:42:49;;;;;;;3.78;1.37;;;25.00;54.80;;;;;;2621694;52;20954;-72
2023/10/07 13:45:28;;;;;;;4.60;1.83;;;25.00;54.10;;;;;;2593054;52;20978;-71
2023/10/07 13:47:55;;;;;;;3.75;1.50;;;25.00;53.90;;;;;;2622301;52;21420;-71
2023/10/07 13:50:24;;;;;;;3.97;1.30;;;25.00;54.90;;;;;;2352446;53;20963;-72
2023/10/07 13:52:59;;;;;;;4.43;1.60;;;25.00;55.00;;;;;;2366994;53;20938;-73
2023/10/07 14:01:25;;;;;;;2.67;1.05;;;25.10;54.40;;;;;;2368721;53;20961;-70
2023/10/07 14:03:51;;;;;;;3.20;1.23;;;25.20;55.00;;;;;;2621346;52;21799;-69
2023/10/07 14:06:18;;;;;;;3.78;1.50;;;25.20;54.80;;;;;;2368999;53;21066;-71
2023/10/07 14:08:46;;;;;;;2.87;1.33;;;25.20;55.10;;;;;;2348431;53;20969;-71
2023/10/07 14:11:13;;;;;;;4.15;1.67;;;25.20;54.40;;;;;;2367371;53;20977;-71
2023/10/07 14:13:46;;;;;;;3.83;1.60;;;25.20;54.20;;;;;;2600781;52;20918;-70
2023/10/07 14:16:18;;;;;;;3.22;1.42;;;25.30;54.40;;;;;;2621829;52;20983;-71
2023/10/07 14:18:45;;;;;;;3.60;1.42;;;25.30;53.90;;;;;;2369109;53;21826;-71
2023/10/07 14:21:11;;;;;;;4.00;1.50;;;25.30;53.60;;;;;;2369602;53;20930;-70
2023/10/07 14:23:38;;;;;;;3.97;1.50;;;25.40;53.60;;;;;;2620781;52;21033;-71
2023/10/07 14:26:08;;;;;;;3.25;1.23;;;25.40;53.70;;;;;;2622146;52;21511;-70
2023/10/07 14:28:36;;;;;;;3.80;1.40;;;25.50;53.80;;;;;;2368521;53;21010;-72
2023/10/07 14:31:13;;;;;;;3.83;1.73;;;25.50;53.60;;;;;;2368744;53;20930;-71
2023/10/07 14:33:40;;;;;;;4.68;1.75;;;25.60;52.90;;;;;;2599836;52;21402;-70
2023/10/07 14:36:10;;;;;;;4.25;1.62;;;25.60;53.60;;;;;;2593554;52;20931;-71
2023/10/07 14:38:39;;;;;;;4.97;2.05;;;25.60;53.90;;;;;;2586875;52;20992;-70
2023/10/07 14:41:11;;;;;;;4.25;1.80;;;25.70;52.50;;;;;;2341499;53;21040;-70
2023/10/07 14:43:39;;;;;;;;;;;25.70;52.90;;;;;;2584312;52;20926;-71
2023/10/07 14:46:10;;;;;;;4.45;1.70;;;25.80;51.90;;;;;;2607436;52;20262;-71
2023/10/07 14:48:46;;;;;;;3.92;1.90;;;25.80;53.40;;;;;;2587035;52;21033;-69
2023/10/07 14:51:13;;;;;;;4.80;1.75;;;25.80;51.90;;;;;;2340642;53;20944;-72
2023/10/07 14:53:39;;;;;;;4.70;1.73;;;25.90;53.00;;;;;;2587628;52;20967;-70
2023/10/07 14:56:16;;;;;;;3.87;1.60;;;25.90;53.10;;;;;;2341851;53;21346;-71
2023/10/07 14:58:43;;;;;;;3.40;1.65;;;25.90;51.90;;;;;;2341132;53;20985;-69
2023/10/07 15:01:13;;;;;;;7.87;1.95;;;26.00;52.40;;;;;;2340820;53;20949;-71
2023/10/07 15:03:41;;;;;;;3.78;1.80;;;26.00;52.10;;;;;;2333856;54;21209;-72
2023/10/07 15:06:15;;;;;;;3.20;1.40;;;26.00;51.80;;;;;;2587859;52;20967;-71
2023/10/07 15:08:41;;;;;;;4.05;1.73;;;26.00;51.40;;;;;;2587350;52;20992;-71
2023/10/07 15:11:07;;;;;;;6.93;1.58;;;26.00;51.80;;;;;;2341810;53;21378;-71
2023/10/07 15:13:34;;;;;;;5.10;1.67;;;26.00;51.80;;;;;;2587393;52;20993;-70
2023/10/07 15:16:11;;;;;;;3.62;1.35;;;26.00;51.60;;;;;;2587446;52;22381;-69
2023/10/07 15:18:44;;;;;;;3.90;1.48;;;26.00;51.30;;;;;;2586836;52;20982;-69
2023/10/07 15:21:12;;;;;;;4.00;1.62;;;26.00;51.20;;;;;;2341856;54;21437;-71